sensor_id;sensor_type;location;lat;lon;timestamp;P1;P2;P0
56069;PMS5003;41944;52.078;-0.058;2022-11-20T00:02:08;31;28;
56069;PMS5003;41944;52.078;-0.058;2022-11-20T00:04:35;31;30;
56069;PMS5003;41944;52.078;-0.058;2022-11-20T00:07:03;28;28;
56069;PMS5003;41944;52.078;-0.058;2022-11-20T00:09:30;30;27;
56069;PMS5003;41944;52.078;-0.058;2022-11-20T00:11:57;32;32;
56069;PMS5003;41944;52.078;-0.058;2022-11-20T00:14:24;32;32;
56069;PMS5003;41944;52.078;-0.058;2022-11-20T00:16:52;30;30;
56069;PMS5003;41944;52.078;-0.058;2022-11-20T00:19:19;31;28;
56069;PMS5003;41944;52.078;-0.058;2022-11-20T00:21:47;27;24;
56069;PMS5003;41944;52.078;-0.058;2022-11-20T00:24:14;34;30;
56069;PMS5003;41944;52.078;-0.058;2022-11-20T00:26:41;26;24;
56069;PMS5003;41944;52.078;-0.058;2022-11-20T00:29:09;24;20;
56069;PMS5003;41944;52.078;-0.058;2022-11-20T00:31:36;32;26;
56069;PMS5003;41944;52.078;-0.058;2022-11-20T00:34:03;22;19;
56069;PMS5003;41944;52.078;-0.058;2022-11-20T00:36:32;21;18;
56069;PMS5003;41944;52.078;-0.058;2022-11-20T00:39:00;26;23;
56069;PMS5003;41944;52.078;-0.058;2022-11-20T00:41:28;25;20;
56069;PMS5003;41944;52.078;-0.058;2022-11-20T00:43:57;23;21;
56069;PMS5003;41944;52.078;-0.058;2022-11-20T00:46:24;24;22;
56069;PMS5003;41944;52.078;-0.058;2022-11-20T00:48:54;24;19;
56069;PMS5003;41944;52.078;-0.058;2022-11-20T00:51:22;29;28;
56069;PMS5003;41944;52.078;-0.058;2022-11-20T00:53:51;21;19;
56069;PMS5003;41944;52.078;-0.058;2022-11-20T00:56:21;24;23;
56069;PMS5003;41944;52.078;-0.058;2022-11-20T00:58:48;25;22;
56069;PMS5003;41944;52.078;-0.058;2022-11-20T01:01:17;30;24;
56069;PMS5003;41944;52.078;-0.058;2022-11-20T01:03:46;24;24;
56069;PMS5003;41944;52.078;-0.058;2022-11-20T01:06:18;29;25;
56069;PMS5003;41944;52.078;-0.058;2022-11-20T01:08:47;26;25;
56069;PMS5003;41944;52.078;-0.058;2022-11-20T01:11:16;32;31;
56069;PMS5003;41944;52.078;-0.058;2022-11-20T01:13:44;29;27;
56069;PMS5003;41944;52.078;-0.058;2022-11-20T01:16:13;30;27;
56069;PMS5003;41944;52.078;-0.058;2022-11-20T01:18:43;32;28;
56069;PMS5003;41944;52.078;-0.058;2022-11-20T01:21:12;32;27;
56069;PMS5003;41944;52.078;-0.058;2022-11-20T01:23:41;27;26;
56069;PMS5003;41944;52.078;-0.058;2022-11-20T01:26:10;25;24;
56069;PMS5003;41944;52.078;-0.058;2022-11-20T01:28:38;26;22;
56069;PMS5003;41944;52.078;-0.058;2022-11-20T01:31:11;26;25;
56069;PMS5003;41944;52.078;-0.058;2022-11-20T01:33:40;28;25;
56069;PMS5003;41944;52.078;-0.058;2022-11-20T01:36:08;25;24;
56069;PMS5003;41944;52.078;-0.058;2022-11-20T01:38:36;32;23;
56069;PMS5003;41944;52.078;-0.058;2022-11-20T01:41:04;30;20;
56069;PMS5003;41944;52.078;-0.058;2022-11-20T01:43:32;29;28;
56069;PMS5003;41944;52.078;-0.058;2022-11-20T01:46:02;22;22;
56069;PMS5003;41944;52.078;-0.058;2022-11-20T01:48:34;26;22;
56069;PMS5003;41944;52.078;-0.058;2022-11-20T01:51:05;33;25;
56069;PMS5003;41944;52.078;-0.058;2022-11-20T01:53:37;25;22;
56069;PMS5003;41944;52.078;-0.058;2022-11-20T01:56:05;26;22;
56069;PMS5003;41944;52.078;-0.058;2022-11-20T01:58:38;26;20;
56069;PMS5003;41944;52.078;-0.058;2022-11-20T02:01:09;21;21;
56069;PMS5003;41944;52.078;-0.058;2022-11-20T02:03:36;21;20;
56069;PMS5003;41944;52.078;-0.058;2022-11-20T02:06:04;25;20;
56069;PMS5003;41944;52.078;-0.058;2022-11-20T02:08:38;21;17;
56069;PMS5003;41944;52.078;-0.058;2022-11-20T02:11:05;13;13;
56069;PMS5003;41944;52.078;-0.058;2022-11-20T02:13:33;15;15;
56069;PMS5003;41944;52.078;-0.058;2022-11-20T02:16:00;20;18;
56069;PMS5003;41944;52.078;-0.058;2022-11-20T02:18:28;16;14;
56069;PMS5003;41944;52.078;-0.058;2022-11-20T02:20:58;18;16;
56069;PMS5003;41944;52.078;-0.058;2022-11-20T02:23:33;22;20;
56069;PMS5003;41944;52.078;-0.058;2022-11-20T02:26:06;17;14;
56069;PMS5003;41944;52.078;-0.058;2022-11-20T02:28:37;19;16;
56069;PMS5003;41944;52.078;-0.058;2022-11-20T02:31:04;19;17;
56069;PMS5003;41944;52.078;-0.058;2022-11-20T02:33:32;16;14;
56069;PMS5003;41944;52.078;-0.058;2022-11-20T02:35:59;22;16;
56069;PMS5003;41944;52.078;-0.058;2022-11-20T02:38:27;19;15;
56069;PMS5003;41944;52.078;-0.058;2022-11-20T02:40:55;24;19;
56069;PMS5003;41944;52.078;-0.058;2022-11-20T02:43:22;24;20;
56069;PMS5003;41944;52.078;-0.058;2022-11-20T02:45:49;22;17;
56069;PMS5003;41944;52.078;-0.058;2022-11-20T02:48:16;23;20;
56069;PMS5003;41944;52.078;-0.058;2022-11-20T02:50:43;24;22;
56069;PMS5003;41944;52.078;-0.058;2022-11-20T02:53:11;17;16;
56069;PMS5003;41944;52.078;-0.058;2022-11-20T02:55:38;19;17;
56069;PMS5003;41944;52.078;-0.058;2022-11-20T02:58:05;26;22;
56069;PMS5003;41944;52.078;-0.058;2022-11-20T03:00:33;22;19;
56069;PMS5003;41944;52.078;-0.058;2022-11-20T03:03:00;25;22;
56069;PMS5003;41944;52.078;-0.058;2022-11-20T03:05:28;28;23;
56069;PMS5003;41944;52.078;-0.058;2022-11-20T03:07:56;28;24;
56069;PMS5003;41944;52.078;-0.058;2022-11-20T03:10:24;28;24;
56069;PMS5003;41944;52.078;-0.058;2022-11-20T03:12:52;22;17;
56069;PMS5003;41944;52.078;-0.058;2022-11-20T03:15:20;23;20;
56069;PMS5003;41944;52.078;-0.058;2022-11-20T03:17:47;21;18;
56069;PMS5003;41944;52.078;-0.058;2022-11-20T03:20:14;23;22;
56069;PMS5003;41944;52.078;-0.058;2022-11-20T03:22:41;29;28;
56069;PMS5003;41944;52.078;-0.058;2022-11-20T03:25:09;30;26;
56069;PMS5003;41944;52.078;-0.058;2022-11-20T03:27:35;24;20;
56069;PMS5003;41944;52.078;-0.058;2022-11-20T03:30:03;28;26;
56069;PMS5003;41944;52.078;-0.058;2022-11-20T03:32:31;23;19;
56069;PMS5003;41944;52.078;-0.058;2022-11-20T03:34:59;28;21;
56069;PMS5003;41944;52.078;-0.058;2022-11-20T03:37:26;23;23;
56069;PMS5003;41944;52.078;-0.058;2022-11-20T03:39:54;20;20;
56069;PMS5003;41944;52.078;-0.058;2022-11-20T03:42:21;30;23;
56069;PMS5003;41944;52.078;-0.058;2022-11-20T03:44:49;21;20;
56069;PMS5003;41944;52.078;-0.058;2022-11-20T03:47:16;23;19;
56069;PMS5003;41944;52.078;-0.058;2022-11-20T03:49:43;19;18;
56069;PMS5003;41944;52.078;-0.058;2022-11-20T03:52:10;24;21;
56069;PMS5003;41944;52.078;-0.058;2022-11-20T03:54:37;24;22;
56069;PMS5003;41944;52.078;-0.058;2022-11-20T03:57:04;25;23;
56069;PMS5003;41944;52.078;-0.058;2022-11-20T03:59:31;24;20;
56069;PMS5003;41944;52.078;-0.058;2022-11-20T04:01:58;26;23;
56069;PMS5003;41944;52.078;-0.058;2022-11-20T04:04:26;20;19;
56069;PMS5003;41944;52.078;-0.058;2022-11-20T04:06:53;23;22;
56069;PMS5003;41944;52.078;-0.058;2022-11-20T04:09:21;18;16;
56069;PMS5003;41944;52.078;-0.058;2022-11-20T04:11:48;20;19;
56069;PMS5003;41944;52.078;-0.058;2022-11-20T04:14:15;22;19;
56069;PMS5003;41944;52.078;-0.058;2022-11-20T04:16:43;26;21;
56069;PMS5003;41944;52.078;-0.058;2022-11-20T04:19:11;21;18;
56069;PMS5003;41944;52.078;-0.058;2022-11-20T04:21:41;19;15;
56069;PMS5003;41944;52.078;-0.058;2022-11-20T04:24:10;23;17;
56069;PMS5003;41944;52.078;-0.058;2022-11-20T04:26:37;19;17;
56069;PMS5003;41944;52.078;-0.058;2022-11-20T04:29:04;19;19;
56069;PMS5003;41944;52.078;-0.058;2022-11-20T04:31:32;24;19;
56069;PMS5003;41944;52.078;-0.058;2022-11-20T04:34:01;21;18;
56069;PMS5003;41944;52.078;-0.058;2022-11-20T04:36:30;20;17;
56069;PMS5003;41944;52.078;-0.058;2022-11-20T04:38:59;18;17;
56069;PMS5003;41944;52.078;-0.058;2022-11-20T04:41:29;22;18;
56069;PMS5003;41944;52.078;-0.058;2022-11-20T04:43:58;21;19;
56069;PMS5003;41944;52.078;-0.058;2022-11-20T04:46:27;20;19;
56069;PMS5003;41944;52.078;-0.058;2022-11-20T04:48:55;22;19;
56069;PMS5003;41944;52.078;-0.058;2022-11-20T04:51:23;17;17;
56069;PMS5003;41944;52.078;-0.058;2022-11-20T04:53:51;15;15;
56069;PMS5003;41944;52.078;-0.058;2022-11-20T04:56:18;16;15;
56069;PMS5003;41944;52.078;-0.058;2022-11-20T04:58:45;19;15;
56069;PMS5003;41944;52.078;-0.058;2022-11-20T05:01:13;15;13;
56069;PMS5003;41944;52.078;-0.058;2022-11-20T05:03:42;18;14;
56069;PMS5003;41944;52.078;-0.058;2022-11-20T05:06:12;18;16;
56069;PMS5003;41944;52.078;-0.058;2022-11-20T05:08:40;12;11;
56069;PMS5003;41944;52.078;-0.058;2022-11-20T05:11:08;13;13;
56069;PMS5003;41944;52.078;-0.058;2022-11-20T05:13:37;15;13;
56069;PMS5003;41944;52.078;-0.058;2022-11-20T05:16:06;15;13;
56069;PMS5003;41944;52.078;-0.058;2022-11-20T05:18:35;13;13;
56069;PMS5003;41944;52.078;-0.058;2022-11-20T05:21:03;14;10;
56069;PMS5003;41944;52.078;-0.058;2022-11-20T05:23:32;12;12;
56069;PMS5003;41944;52.078;-0.058;2022-11-20T05:26:00;12;10;
56069;PMS5003;41944;52.078;-0.058;2022-11-20T05:28:28;15;9;
56069;PMS5003;41944;52.078;-0.058;2022-11-20T05:31:03;13;10;
56069;PMS5003;41944;52.078;-0.058;2022-11-20T05:33:32;10;9;
56069;PMS5003;41944;52.078;-0.058;2022-11-20T05:35:59;11;11;
56069;PMS5003;41944;52.078;-0.058;2022-11-20T05:38:27;12;11;
56069;PMS5003;41944;52.078;-0.058;2022-11-20T05:40:54;11;11;
56069;PMS5003;41944;52.078;-0.058;2022-11-20T05:43:21;14;12;
56069;PMS5003;41944;52.078;-0.058;2022-11-20T05:45:53;16;10;
56069;PMS5003;41944;52.078;-0.058;2022-11-20T05:48:20;11;10;
56069;PMS5003;41944;52.078;-0.058;2022-11-20T05:50:47;15;13;
56069;PMS5003;41944;52.078;-0.058;2022-11-20T05:53:15;9;9;
56069;PMS5003;41944;52.078;-0.058;2022-11-20T05:55:43;13;11;
56069;PMS5003;41944;52.078;-0.058;2022-11-20T05:58:10;10;10;
56069;PMS5003;41944;52.078;-0.058;2022-11-20T06:00:37;11;10;
56069;PMS5003;41944;52.078;-0.058;2022-11-20T06:03:05;12;11;
56069;PMS5003;41944;52.078;-0.058;2022-11-20T06:05:33;9;8;
56069;PMS5003;41944;52.078;-0.058;2022-11-20T06:08:00;11;9;
56069;PMS5003;41944;52.078;-0.058;2022-11-20T06:10:27;9;9;
56069;PMS5003;41944;52.078;-0.058;2022-11-20T06:12:57;8;8;
56069;PMS5003;41944;52.078;-0.058;2022-11-20T06:15:24;8;8;
56069;PMS5003;41944;52.078;-0.058;2022-11-20T06:17:53;10;10;
56069;PMS5003;41944;52.078;-0.058;2022-11-20T06:20:20;9;7;
56069;PMS5003;41944;52.078;-0.058;2022-11-20T06:22:48;8;6;
56069;PMS5003;41944;52.078;-0.058;2022-11-20T06:25:14;9;9;
56069;PMS5003;41944;52.078;-0.058;2022-11-20T06:27:42;12;9;
56069;PMS5003;41944;52.078;-0.058;2022-11-20T06:30:09;7;6;
56069;PMS5003;41944;52.078;-0.058;2022-11-20T06:32:38;6;6;
56069;PMS5003;41944;52.078;-0.058;2022-11-20T06:35:05;8;7;
56069;PMS5003;41944;52.078;-0.058;2022-11-20T06:37:32;7;7;
56069;PMS5003;41944;52.078;-0.058;2022-11-20T06:39:59;7;6;
56069;PMS5003;41944;52.078;-0.058;2022-11-20T06:42:26;8;7;
56069;PMS5003;41944;52.078;-0.058;2022-11-20T06:44:53;8;7;
56069;PMS5003;41944;52.078;-0.058;2022-11-20T06:47:21;7;6;
56069;PMS5003;41944;52.078;-0.058;2022-11-20T06:49:47;9;8;
56069;PMS5003;41944;52.078;-0.058;2022-11-20T06:52:14;4;4;
56069;PMS5003;41944;52.078;-0.058;2022-11-20T06:54:41;6;6;
56069;PMS5003;41944;52.078;-0.058;2022-11-20T06:57:09;9;7;
56069;PMS5003;41944;52.078;-0.058;2022-11-20T06:59:36;8;7;
56069;PMS5003;41944;52.078;-0.058;2022-11-20T07:02:03;9;8;
56069;PMS5003;41944;52.078;-0.058;2022-11-20T07:04:29;6;6;
56069;PMS5003;41944;52.078;-0.058;2022-11-20T07:06:56;9;6;
56069;PMS5003;41944;52.078;-0.058;2022-11-20T07:09:23;6;4;
56069;PMS5003;41944;52.078;-0.058;2022-11-20T07:11:50;4;4;
56069;PMS5003;41944;52.078;-0.058;2022-11-20T07:14:18;7;7;
56069;PMS5003;41944;52.078;-0.058;2022-11-20T07:16:45;5;5;
56069;PMS5003;41944;52.078;-0.058;2022-11-20T07:19:12;6;6;
56069;PMS5003;41944;52.078;-0.058;2022-11-20T07:21:39;5;5;
56069;PMS5003;41944;52.078;-0.058;2022-11-20T07:24:06;8;7;
56069;PMS5003;41944;52.078;-0.058;2022-11-20T07:26:34;5;5;
56069;PMS5003;41944;52.078;-0.058;2022-11-20T07:29:01;6;6;
56069;PMS5003;41944;52.078;-0.058;2022-11-20T07:31:28;5;5;
56069;PMS5003;41944;52.078;-0.058;2022-11-20T07:33:56;8;5;
56069;PMS5003;41944;52.078;-0.058;2022-11-20T07:36:22;6;6;
56069;PMS5003;41944;52.078;-0.058;2022-11-20T07:38:49;6;6;
56069;PMS5003;41944;52.078;-0.058;2022-11-20T07:41:17;7;7;
56069;PMS5003;41944;52.078;-0.058;2022-11-20T07:43:44;7;6;
56069;PMS5003;41944;52.078;-0.058;2022-11-20T07:46:11;9;8;
56069;PMS5003;41944;52.078;-0.058;2022-11-20T07:48:37;6;5;
56069;PMS5003;41944;52.078;-0.058;2022-11-20T07:51:04;9;6;
56069;PMS5003;41944;52.078;-0.058;2022-11-20T07:53:32;8;6;
56069;PMS5003;41944;52.078;-0.058;2022-11-20T07:56:00;7;6;
56069;PMS5003;41944;52.078;-0.058;2022-11-20T07:58:28;9;9;
56069;PMS5003;41944;52.078;-0.058;2022-11-20T08:00:56;12;11;
56069;PMS5003;41944;52.078;-0.058;2022-11-20T08:03:23;8;7;
56069;PMS5003;41944;52.078;-0.058;2022-11-20T08:05:50;8;7;
56069;PMS5003;41944;52.078;-0.058;2022-11-20T08:08:17;5;5;
56069;PMS5003;41944;52.078;-0.058;2022-11-20T08:10:44;6;6;
56069;PMS5003;41944;52.078;-0.058;2022-11-20T08:13:12;8;5;
56069;PMS5003;41944;52.078;-0.058;2022-11-20T08:15:39;7;7;
56069;PMS5003;41944;52.078;-0.058;2022-11-20T08:18:07;8;7;
56069;PMS5003;41944;52.078;-0.058;2022-11-20T08:20:36;5;5;
56069;PMS5003;41944;52.078;-0.058;2022-11-20T08:23:04;5;5;
56069;PMS5003;41944;52.078;-0.058;2022-11-20T08:25:32;5;5;
56069;PMS5003;41944;52.078;-0.058;2022-11-20T08:28:01;6;5;
56069;PMS5003;41944;52.078;-0.058;2022-11-20T08:30:31;8;5;
56069;PMS5003;41944;52.078;-0.058;2022-11-20T08:33:00;6;5;
56069;PMS5003;41944;52.078;-0.058;2022-11-20T08:35:32;4;4;
56069;PMS5003;41944;52.078;-0.058;2022-11-20T08:38:00;4;4;
56069;PMS5003;41944;52.078;-0.058;2022-11-20T08:40:27;5;5;
56069;PMS5003;41944;52.078;-0.058;2022-11-20T08:42:55;5;5;
56069;PMS5003;41944;52.078;-0.058;2022-11-20T08:45:23;6;4;
56069;PMS5003;41944;52.078;-0.058;2022-11-20T08:47:50;3;3;
56069;PMS5003;41944;52.078;-0.058;2022-11-20T08:50:17;5;5;
56069;PMS5003;41944;52.078;-0.058;2022-11-20T08:52:44;4;4;
56069;PMS5003;41944;52.078;-0.058;2022-11-20T08:55:12;7;5;
56069;PMS5003;41944;52.078;-0.058;2022-11-20T08:57:39;7;4;
56069;PMS5003;41944;52.078;-0.058;2022-11-20T09:00:07;6;6;
56069;PMS5003;41944;52.078;-0.058;2022-11-20T09:02:35;5;5;
56069;PMS5003;41944;52.078;-0.058;2022-11-20T09:05:03;6;6;
56069;PMS5003;41944;52.078;-0.058;2022-11-20T09:07:30;5;4;
56069;PMS5003;41944;52.078;-0.058;2022-11-20T09:09:57;12;9;
56069;PMS5003;41944;52.078;-0.058;2022-11-20T09:12:25;4;4;
56069;PMS5003;41944;52.078;-0.058;2022-11-20T09:14:53;5;5;
56069;PMS5003;41944;52.078;-0.058;2022-11-20T09:17:20;4;1;
56069;PMS5003;41944;52.078;-0.058;2022-11-20T09:19:47;6;5;
56069;PMS5003;41944;52.078;-0.058;2022-11-20T09:22:14;4;4;
56069;PMS5003;41944;52.078;-0.058;2022-11-20T09:24:42;3;3;
56069;PMS5003;41944;52.078;-0.058;2022-11-20T09:27:10;5;4;
56069;PMS5003;41944;52.078;-0.058;2022-11-20T09:29:37;5;3;
56069;PMS5003;41944;52.078;-0.058;2022-11-20T09:32:07;6;5;
56069;PMS5003;41944;52.078;-0.058;2022-11-20T09:34:34;3;3;
56069;PMS5003;41944;52.078;-0.058;2022-11-20T09:37:01;4;4;
56069;PMS5003;41944;52.078;-0.058;2022-11-20T09:39:29;3;2;
56069;PMS5003;41944;52.078;-0.058;2022-11-20T09:42:03;4;4;
56069;PMS5003;41944;52.078;-0.058;2022-11-20T09:44:47;4;3;
56069;PMS5003;41944;52.078;-0.058;2022-11-20T09:47:24;4;4;
56069;PMS5003;41944;52.078;-0.058;2022-11-20T09:50:07;2;2;
56069;PMS5003;41944;52.078;-0.058;2022-11-20T09:52:48;3;1;
56069;PMS5003;41944;52.078;-0.058;2022-11-20T09:55:27;9;4;
56069;PMS5003;41944;52.078;-0.058;2022-11-20T09:57:57;2;2;
56069;PMS5003;41944;52.078;-0.058;2022-11-20T10:00:26;4;3;
56069;PMS5003;41944;52.078;-0.058;2022-11-20T10:02:58;4;4;
56069;PMS5003;41944;52.078;-0.058;2022-11-20T10:05:31;5;3;
56069;PMS5003;41944;52.078;-0.058;2022-11-20T10:08:08;4;4;
56069;PMS5003;41944;52.078;-0.058;2022-11-20T10:10:44;4;4;
56069;PMS5003;41944;52.078;-0.058;2022-11-20T10:13:17;5;4;
56069;PMS5003;41944;52.078;-0.058;2022-11-20T10:15:55;2;2;
56069;PMS5003;41944;52.078;-0.058;2022-11-20T10:18:40;4;2;
56069;PMS5003;41944;52.078;-0.058;2022-11-20T10:21:20;6;5;
56069;PMS5003;41944;52.078;-0.058;2022-11-20T10:24:06;9;3;
56069;PMS5003;41944;52.078;-0.058;2022-11-20T10:26:53;7;3;
56069;PMS5003;41944;52.078;-0.058;2022-11-20T10:29:32;4;4;
56069;PMS5003;41944;52.078;-0.058;2022-11-20T10:32:02;3;3;
56069;PMS5003;41944;52.078;-0.058;2022-11-20T10:34:38;5;2;
56069;PMS5003;41944;52.078;-0.058;2022-11-20T10:37:16;6;4;
56069;PMS5003;41944;52.078;-0.058;2022-11-20T10:39:49;6;3;
56069;PMS5003;41944;52.078;-0.058;2022-11-20T10:42:22;5;2;
56069;PMS5003;41944;52.078;-0.058;2022-11-20T10:44:58;6;3;
56069;PMS5003;41944;52.078;-0.058;2022-11-20T10:47:40;2;2;
56069;PMS5003;41944;52.078;-0.058;2022-11-20T10:50:09;8;5;
56069;PMS5003;41944;52.078;-0.058;2022-11-20T10:52:44;5;4;
56069;PMS5003;41944;52.078;-0.058;2022-11-20T10:55:25;7;7;
56069;PMS5003;41944;52.078;-0.058;2022-11-20T10:58:01;3;3;
56069;PMS5003;41944;52.078;-0.058;2022-11-20T11:00:34;3;2;
56069;PMS5003;41944;52.078;-0.058;2022-11-20T11:03:01;9;4;
56069;PMS5003;41944;52.078;-0.058;2022-11-20T11:05:33;3;1;
56069;PMS5003;41944;52.078;-0.058;2022-11-20T11:08:07;10;3;
56069;PMS5003;41944;52.078;-0.058;2022-11-20T11:10:39;6;3;
56069;PMS5003;41944;52.078;-0.058;2022-11-20T11:13:19;4;4;
56069;PMS5003;41944;52.078;-0.058;2022-11-20T11:15:47;10;2;
56069;PMS5003;41944;52.078;-0.058;2022-11-20T11:18:22;3;3;
56069;PMS5003;41944;52.078;-0.058;2022-11-20T11:20:51;6;3;
56069;PMS5003;41944;52.078;-0.058;2022-11-20T11:23:28;3;3;
56069;PMS5003;41944;52.078;-0.058;2022-11-20T11:25:59;5;2;
56069;PMS5003;41944;52.078;-0.058;2022-11-20T11:28:28;4;2;
56069;PMS5003;41944;52.078;-0.058;2022-11-20T11:30:56;5;4;
56069;PMS5003;41944;52.078;-0.058;2022-11-20T11:33:23;5;2;
56069;PMS5003;41944;52.078;-0.058;2022-11-20T11:35:52;8;4;
56069;PMS5003;41944;52.078;-0.058;2022-11-20T11:38:22;5;3;
56069;PMS5003;41944;52.078;-0.058;2022-11-20T11:40:55;6;1;
56069;PMS5003;41944;52.078;-0.058;2022-11-20T11:43:24;3;2;
56069;PMS5003;41944;52.078;-0.058;2022-11-20T11:45:53;5;4;
56069;PMS5003;41944;52.078;-0.058;2022-11-20T11:48:22;6;2;
56069;PMS5003;41944;52.078;-0.058;2022-11-20T11:50:49;5;4;
56069;PMS5003;41944;52.078;-0.058;2022-11-20T11:53:17;2;1;
56069;PMS5003;41944;52.078;-0.058;2022-11-20T11:55:47;5;2;
56069;PMS5003;41944;52.078;-0.058;2022-11-20T11:58:27;8;3;
56069;PMS5003;41944;52.078;-0.058;2022-11-20T12:01:08;9;3;
56069;PMS5003;41944;52.078;-0.058;2022-11-20T12:03:51;7;4;
56069;PMS5003;41944;52.078;-0.058;2022-11-20T12:06:22;7;3;
56069;PMS5003;41944;52.078;-0.058;2022-11-20T12:08:52;5;2;
56069;PMS5003;41944;52.078;-0.058;2022-11-20T12:11:29;5;3;
56069;PMS5003;41944;52.078;-0.058;2022-11-20T12:14:01;8;2;
56069;PMS5003;41944;52.078;-0.058;2022-11-20T12:16:36;5;3;
56069;PMS5003;41944;52.078;-0.058;2022-11-20T12:19:07;10;5;
56069;PMS5003;41944;52.078;-0.058;2022-11-20T12:21:39;5;3;
56069;PMS5003;41944;52.078;-0.058;2022-11-20T12:24:53;8;4;
56069;PMS5003;41944;52.078;-0.058;2022-11-20T12:27:35;4;4;
56069;PMS5003;41944;52.078;-0.058;2022-11-20T12:30:11;7;5;
56069;PMS5003;41944;52.078;-0.058;2022-11-20T12:32:45;4;3;
56069;PMS5003;41944;52.078;-0.058;2022-11-20T12:35:30;7;3;
56069;PMS5003;41944;52.078;-0.058;2022-11-20T12:38:13;8;4;
56069;PMS5003;41944;52.078;-0.058;2022-11-20T12:40:59;11;3;
56069;PMS5003;41944;52.078;-0.058;2022-11-20T12:43:39;3;3;
56069;PMS5003;41944;52.078;-0.058;2022-11-20T12:46:15;6;3;
56069;PMS5003;41944;52.078;-0.058;2022-11-20T12:49:02;8;4;
56069;PMS5003;41944;52.078;-0.058;2022-11-20T12:51:53;3;3;
56069;PMS5003;41944;52.078;-0.058;2022-11-20T12:54:34;4;2;
56069;PMS5003;41944;52.078;-0.058;2022-11-20T12:57:15;4;2;
56069;PMS5003;41944;52.078;-0.058;2022-11-20T12:59:54;2;1;
56069;PMS5003;41944;52.078;-0.058;2022-11-20T13:02:37;6;2;
56069;PMS5003;41944;52.078;-0.058;2022-11-20T13:05:17;8;5;
56069;PMS5003;41944;52.078;-0.058;2022-11-20T13:07:47;7;3;
56069;PMS5003;41944;52.078;-0.058;2022-11-20T13:10:19;6;5;
56069;PMS5003;41944;52.078;-0.058;2022-11-20T13:12:54;7;3;
56069;PMS5003;41944;52.078;-0.058;2022-11-20T13:15:33;7;3;
56069;PMS5003;41944;52.078;-0.058;2022-11-20T13:18:10;4;2;
56069;PMS5003;41944;52.078;-0.058;2022-11-20T13:20:41;9;4;
56069;PMS5003;41944;52.078;-0.058;2022-11-20T13:23:10;6;3;
56069;PMS5003;41944;52.078;-0.058;2022-11-20T13:25:38;6;3;
56069;PMS5003;41944;52.078;-0.058;2022-11-20T13:28:26;8;4;
56069;PMS5003;41944;52.078;-0.058;2022-11-20T13:30:55;6;2;
56069;PMS5003;41944;52.078;-0.058;2022-11-20T13:33:27;7;5;
56069;PMS5003;41944;52.078;-0.058;2022-11-20T13:35:58;12;4;
56069;PMS5003;41944;52.078;-0.058;2022-11-20T13:38:27;9;4;
56069;PMS5003;41944;52.078;-0.058;2022-11-20T13:41:07;8;2;
56069;PMS5003;41944;52.078;-0.058;2022-11-20T13:43:35;2;2;
56069;PMS5003;41944;52.078;-0.058;2022-11-20T13:46:06;7;3;
56069;PMS5003;41944;52.078;-0.058;2022-11-20T13:48:38;7;3;
56069;PMS5003;41944;52.078;-0.058;2022-11-20T13:51:10;3;1;
56069;PMS5003;41944;52.078;-0.058;2022-11-20T13:54:00;2;0;
56069;PMS5003;41944;52.078;-0.058;2022-11-20T13:56:46;4;1;
56069;PMS5003;41944;52.078;-0.058;2022-11-20T13:59:26;4;2;
56069;PMS5003;41944;52.078;-0.058;2022-11-20T14:02:09;3;2;
56069;PMS5003;41944;52.078;-0.058;2022-11-20T14:04:41;6;1;
56069;PMS5003;41944;52.078;-0.058;2022-11-20T14:07:11;7;1;
56069;PMS5003;41944;52.078;-0.058;2022-11-20T14:09:48;6;3;
56069;PMS5003;41944;52.078;-0.058;2022-11-20T14:12:18;4;3;
56069;PMS5003;41944;52.078;-0.058;2022-11-20T14:14:47;6;2;
56069;PMS5003;41944;52.078;-0.058;2022-11-20T14:17:17;2;1;
56069;PMS5003;41944;52.078;-0.058;2022-11-20T14:19:46;4;3;
56069;PMS5003;41944;52.078;-0.058;2022-11-20T14:22:17;5;2;
56069;PMS5003;41944;52.078;-0.058;2022-11-20T14:24:46;4;4;
56069;PMS5003;41944;52.078;-0.058;2022-11-20T14:27:14;5;1;
56069;PMS5003;41944;52.078;-0.058;2022-11-20T14:29:44;4;2;
56069;PMS5003;41944;52.078;-0.058;2022-11-20T14:32:14;6;2;
56069;PMS5003;41944;52.078;-0.058;2022-11-20T14:34:44;6;3;
56069;PMS5003;41944;52.078;-0.058;2022-11-20T14:37:17;5;3;
56069;PMS5003;41944;52.078;-0.058;2022-11-20T14:39:49;5;4;
56069;PMS5003;41944;52.078;-0.058;2022-11-20T14:42:18;8;3;
56069;PMS5003;41944;52.078;-0.058;2022-11-20T14:44:47;10;5;
56069;PMS5003;41944;52.078;-0.058;2022-11-20T14:47:17;4;3;
56069;PMS5003;41944;52.078;-0.058;2022-11-20T14:49:48;4;2;
56069;PMS5003;41944;52.078;-0.058;2022-11-20T14:52:17;8;3;
56069;PMS5003;41944;52.078;-0.058;2022-11-20T14:54:46;5;4;
56069;PMS5003;41944;52.078;-0.058;2022-11-20T14:57:23;1;1;
56069;PMS5003;41944;52.078;-0.058;2022-11-20T15:00:03;3;3;
56069;PMS5003;41944;52.078;-0.058;2022-11-20T15:02:32;3;2;
56069;PMS5003;41944;52.078;-0.058;2022-11-20T15:05:01;6;3;
56069;PMS5003;41944;52.078;-0.058;2022-11-20T15:07:29;11;2;
56069;PMS5003;41944;52.078;-0.058;2022-11-20T15:09:59;6;5;
56069;PMS5003;41944;52.078;-0.058;2022-11-20T15:12:28;14;7;
56069;PMS5003;41944;52.078;-0.058;2022-11-20T15:14:57;5;5;
56069;PMS5003;41944;52.078;-0.058;2022-11-20T15:17:24;5;5;
56069;PMS5003;41944;52.078;-0.058;2022-11-20T15:19:51;3;2;
56069;PMS5003;41944;52.078;-0.058;2022-11-20T15:22:20;6;2;
56069;PMS5003;41944;52.078;-0.058;2022-11-20T15:24:46;11;5;
56069;PMS5003;41944;52.078;-0.058;2022-11-20T15:27:14;6;3;
56069;PMS5003;41944;52.078;-0.058;2022-11-20T15:29:41;4;3;
56069;PMS5003;41944;52.078;-0.058;2022-11-20T15:32:09;8;3;
56069;PMS5003;41944;52.078;-0.058;2022-11-20T15:34:35;8;4;
56069;PMS5003;41944;52.078;-0.058;2022-11-20T15:37:02;6;5;
56069;PMS5003;41944;52.078;-0.058;2022-11-20T15:39:29;7;3;
56069;PMS5003;41944;52.078;-0.058;2022-11-20T15:41:57;8;5;
56069;PMS5003;41944;52.078;-0.058;2022-11-20T15:44:24;7;6;
56069;PMS5003;41944;52.078;-0.058;2022-11-20T15:46:51;10;6;
56069;PMS5003;41944;52.078;-0.058;2022-11-20T15:49:18;10;6;
56069;PMS5003;41944;52.078;-0.058;2022-11-20T15:51:46;5;5;
56069;PMS5003;41944;52.078;-0.058;2022-11-20T15:54:16;5;5;
56069;PMS5003;41944;52.078;-0.058;2022-11-20T15:56:44;7;6;
56069;PMS5003;41944;52.078;-0.058;2022-11-20T15:59:12;6;3;
56069;PMS5003;41944;52.078;-0.058;2022-11-20T16:01:40;4;3;
56069;PMS5003;41944;52.078;-0.058;2022-11-20T16:04:09;7;3;
56069;PMS5003;41944;52.078;-0.058;2022-11-20T16:06:37;3;3;
56069;PMS5003;41944;52.078;-0.058;2022-11-20T16:09:05;4;3;
56069;PMS5003;41944;52.078;-0.058;2022-11-20T16:11:32;5;4;
56069;PMS5003;41944;52.078;-0.058;2022-11-20T16:14:00;5;5;
56069;PMS5003;41944;52.078;-0.058;2022-11-20T16:16:28;5;5;
56069;PMS5003;41944;52.078;-0.058;2022-11-20T16:18:57;14;9;
56069;PMS5003;41944;52.078;-0.058;2022-11-20T16:21:25;8;7;
56069;PMS5003;41944;52.078;-0.058;2022-11-20T16:23:54;4;2;
56069;PMS5003;41944;52.078;-0.058;2022-11-20T16:26:20;4;3;
56069;PMS5003;41944;52.078;-0.058;2022-11-20T16:28:47;4;2;
56069;PMS5003;41944;52.078;-0.058;2022-11-20T16:31:15;5;5;
56069;PMS5003;41944;52.078;-0.058;2022-11-20T16:33:48;7;7;
56069;PMS5003;41944;52.078;-0.058;2022-11-20T16:36:17;5;4;
56069;PMS5003;41944;52.078;-0.058;2022-11-20T16:38:45;8;3;
56069;PMS5003;41944;52.078;-0.058;2022-11-20T16:41:13;11;8;